sensor_id;sensor_type;location;lat;lon;timestamp;P1;durP1;ratioP1;P2;durP2;ratioP2
69970;SDS011;57301;50.328;8.542;2022-07-11T00:00:01;9.93;;;5.25;;
69970;SDS011;57301;50.328;8.542;2022-07-11T00:02:29;9.40;;;5.43;;
69970;SDS011;57301;50.328;8.542;2022-07-11T00:04:55;8.20;;;5.68;;
69970;SDS011;57301;50.328;8.542;2022-07-11T00:07:22;8.43;;;6.05;;
69970;SDS011;57301;50.328;8.542;2022-07-11T00:09:48;10.23;;;5.70;;
69970;SDS011;57301;50.328;8.542;2022-07-11T00:12:15;7.78;;;5.35;;
69970;SDS011;57301;50.328;8.542;2022-07-11T00:14:42;9.02;;;5.70;;
69970;SDS011;57301;50.328;8.542;2022-07-11T00:17:09;8.60;;;5.90;;
69970;SDS011;57301;50.328;8.542;2022-07-11T00:19:36;7.22;;;5.03;;
69970;SDS011;57301;50.328;8.542;2022-07-11T00:22:03;9.37;;;5.83;;
69970;SDS011;57301;50.328;8.542;2022-07-11T00:24:30;11.70;;;5.80;;
69970;SDS011;57301;50.328;8.542;2022-07-11T00:26:57;7.57;;;5.15;;
69970;SDS011;57301;50.328;8.542;2022-07-11T00:29:24;7.90;;;5.45;;
69970;SDS011;57301;50.328;8.542;2022-07-11T00:31:51;6.13;;;5.53;;
69970;SDS011;57301;50.328;8.542;2022-07-11T00:34:17;7.90;;;5.00;;
69970;SDS011;57301;50.328;8.542;2022-07-11T00:36:44;6.78;;;5.40;;
69970;SDS011;57301;50.328;8.542;2022-07-11T00:39:10;6.57;;;5.30;;
69970;SDS011;57301;50.328;8.542;2022-07-11T00:41:37;7.03;;;5.30;;
69970;SDS011;57301;50.328;8.542;2022-07-11T00:44:04;7.28;;;5.00;;
69970;SDS011;57301;50.328;8.542;2022-07-11T00:46:30;7.07;;;5.40;;
69970;SDS011;57301;50.328;8.542;2022-07-11T00:48:58;6.75;;;5.00;;
69970;SDS011;57301;50.328;8.542;2022-07-11T00:51:26;6.40;;;5.10;;
69970;SDS011;57301;50.328;8.542;2022-07-11T00:53:54;8.43;;;5.32;;
69970;SDS011;57301;50.328;8.542;2022-07-11T00:56:31;7.35;;;5.47;;
69970;SDS011;57301;50.328;8.542;2022-07-11T00:58:57;8.57;;;5.40;;
69970;SDS011;57301;50.328;8.542;2022-07-11T01:01:25;8.57;;;4.88;;
69970;SDS011;57301;50.328;8.542;2022-07-11T01:03:52;5.70;;;4.90;;
69970;SDS011;57301;50.328;8.542;2022-07-11T01:06:19;7.65;;;5.13;;
69970;SDS011;57301;50.328;8.542;2022-07-11T01:08:45;6.88;;;5.10;;
69970;SDS011;57301;50.328;8.542;2022-07-11T01:11:12;6.47;;;5.13;;
69970;SDS011;57301;50.328;8.542;2022-07-11T01:13:42;5.47;;;4.90;;
69970;SDS011;57301;50.328;8.542;2022-07-11T01:16:18;5.63;;;4.75;;
69970;SDS011;57301;50.328;8.542;2022-07-11T01:18:49;9.05;;;5.28;;
69970;SDS011;57301;50.328;8.542;2022-07-11T01:23:46;8.60;;;5.40;;
69970;SDS011;57301;50.328;8.542;2022-07-11T01:26:15;6.53;;;5.32;;
69970;SDS011;57301;50.328;8.542;2022-07-11T01:28:42;8.27;;;5.20;;
69970;SDS011;57301;50.328;8.542;2022-07-11T01:31:09;5.57;;;4.82;;
69970;SDS011;57301;50.328;8.542;2022-07-11T01:33:37;6.93;;;5.07;;
69970;SDS011;57301;50.328;8.542;2022-07-11T01:36:04;7.03;;;5.17;;
69970;SDS011;57301;50.328;8.542;2022-07-11T01:38:30;7.90;;;5.15;;
69970;SDS011;57301;50.328;8.542;2022-07-11T01:40:57;7.97;;;5.30;;
69970;SDS011;57301;50.328;8.542;2022-07-11T01:43:23;8.07;;;5.25;;
69970;SDS011;57301;50.328;8.542;2022-07-11T01:45:51;6.53;;;5.10;;
69970;SDS011;57301;50.328;8.542;2022-07-11T01:48:19;7.03;;;4.97;;
69970;SDS011;57301;50.328;8.542;2022-07-11T01:50:46;6.05;;;5.20;;
69970;SDS011;57301;50.328;8.542;2022-07-11T01:53:14;6.72;;;5.15;;
69970;SDS011;57301;50.328;8.542;2022-07-11T01:55:41;6.68;;;5.05;;
69970;SDS011;57301;50.328;8.542;2022-07-11T01:58:28;6.00;;;4.82;;
69970;SDS011;57301;50.328;8.542;2022-07-11T02:00:58;7.40;;;4.90;;
69970;SDS011;57301;50.328;8.542;2022-07-11T02:03:25;6.72;;;5.05;;
69970;SDS011;57301;50.328;8.542;2022-07-11T02:05:51;6.38;;;4.63;;
69970;SDS011;57301;50.328;8.542;2022-07-11T02:08:18;6.85;;;4.70;;
69970;SDS011;57301;50.328;8.542;2022-07-11T02:10:46;7.32;;;5.15;;
69970;SDS011;57301;50.328;8.542;2022-07-11T02:13:14;6.17;;;4.97;;
69970;SDS011;57301;50.328;8.542;2022-07-11T02:15:43;6.78;;;5.25;;
69970;SDS011;57301;50.328;8.542;2022-07-11T02:18:10;6.75;;;5.47;;
69970;SDS011;57301;50.328;8.542;2022-07-11T02:20:39;5.80;;;5.18;;
69970;SDS011;57301;50.328;8.542;2022-07-11T02:23:07;10.27;;;6.43;;
69970;SDS011;57301;50.328;8.542;2022-07-11T02:25:34;16.10;;;9.80;;
69970;SDS011;57301;50.328;8.542;2022-07-11T02:28:10;8.15;;;6.00;;
69970;SDS011;57301;50.328;8.542;2022-07-11T02:30:38;8.85;;;5.38;;
69970;SDS011;57301;50.328;8.542;2022-07-11T02:33:06;7.60;;;5.10;;
69970;SDS011;57301;50.328;8.542;2022-07-11T02:35:34;7.47;;;5.53;;
69970;SDS011;57301;50.328;8.542;2022-07-11T02:38:01;6.00;;;5.17;;
69970;SDS011;57301;50.328;8.542;2022-07-11T02:40:28;6.05;;;5.15;;
69970;SDS011;57301;50.328;8.542;2022-07-11T02:42:55;6.15;;;5.10;;
69970;SDS011;57301;50.328;8.542;2022-07-11T02:45:22;7.43;;;5.10;;
69970;SDS011;57301;50.328;8.542;2022-07-11T02:47:48;7.53;;;5.07;;
69970;SDS011;57301;50.328;8.542;2022-07-11T02:50:15;7.20;;;4.93;;
69970;SDS011;57301;50.328;8.542;2022-07-11T02:52:42;6.25;;;5.28;;
69970;SDS011;57301;50.328;8.542;2022-07-11T02:55:09;8.38;;;5.20;;
69970;SDS011;57301;50.328;8.542;2022-07-11T02:57:37;6.47;;;5.10;;
69970;SDS011;57301;50.328;8.542;2022-07-11T03:00:05;5.88;;;4.97;;
69970;SDS011;57301;50.328;8.542;2022-07-11T03:02:34;7.63;;;5.10;;
69970;SDS011;57301;50.328;8.542;2022-07-11T03:05:00;9.18;;;5.43;;
69970;SDS011;57301;50.328;8.542;2022-07-11T03:07:27;7.88;;;5.35;;
69970;SDS011;57301;50.328;8.542;2022-07-11T03:09:54;8.73;;;5.30;;
69970;SDS011;57301;50.328;8.542;2022-07-11T03:12:21;5.90;;;4.82;;
69970;SDS011;57301;50.328;8.542;2022-07-11T03:14:48;6.23;;;5.30;;
69970;SDS011;57301;50.328;8.542;2022-07-11T03:17:15;8.07;;;5.45;;
69970;SDS011;57301;50.328;8.542;2022-07-11T03:19:43;8.45;;;5.30;;
69970;SDS011;57301;50.328;8.542;2022-07-11T03:22:10;8.10;;;4.90;;
69970;SDS011;57301;50.328;8.542;2022-07-11T03:24:36;6.28;;;4.70;;
69970;SDS011;57301;50.328;8.542;2022-07-11T03:27:04;6.80;;;5.10;;
69970;SDS011;57301;50.328;8.542;2022-07-11T03:29:37;5.70;;;5.10;;
69970;SDS011;57301;50.328;8.542;2022-07-11T03:32:04;8.18;;;4.90;;
69970;SDS011;57301;50.328;8.542;2022-07-11T03:34:31;8.45;;;4.75;;
69970;SDS011;57301;50.328;8.542;2022-07-11T03:36:58;8.98;;;6.22;;
69970;SDS011;57301;50.328;8.542;2022-07-11T03:39:24;6.70;;;5.27;;
69970;SDS011;57301;50.328;8.542;2022-07-11T03:41:51;7.30;;;5.25;;
69970;SDS011;57301;50.328;8.542;2022-07-11T03:44:19;6.97;;;4.97;;
69970;SDS011;57301;50.328;8.542;2022-07-11T03:46:48;5.72;;;4.82;;
69970;SDS011;57301;50.328;8.542;2022-07-11T03:49:15;7.38;;;5.00;;
69970;SDS011;57301;50.328;8.542;2022-07-11T03:51:42;8.07;;;4.90;;
69970;SDS011;57301;50.328;8.542;2022-07-11T03:54:08;6.38;;;4.70;;
69970;SDS011;57301;50.328;8.542;2022-07-11T03:56:35;7.65;;;4.43;;
69970;SDS011;57301;50.328;8.542;2022-07-11T03:59:02;5.22;;;4.65;;
69970;SDS011;57301;50.328;8.542;2022-07-11T04:01:28;6.38;;;4.78;;
69970;SDS011;57301;50.328;8.542;2022-07-11T04:03:55;5.93;;;4.40;;
69970;SDS011;57301;50.328;8.542;2022-07-11T04:06:21;7.75;;;4.80;;
69970;SDS011;57301;50.328;8.542;2022-07-11T04:08:48;7.20;;;5.13;;
69970;SDS011;57301;50.328;8.542;2022-07-11T04:11:14;9.13;;;4.88;;
69970;SDS011;57301;50.328;8.542;2022-07-11T04:13:41;7.28;;;5.15;;
69970;SDS011;57301;50.328;8.542;2022-07-11T04:16:09;8.27;;;5.30;;
69970;SDS011;57301;50.328;8.542;2022-07-11T04:18:35;7.25;;;4.68;;
69970;SDS011;57301;50.328;8.542;2022-07-11T04:21:02;8.88;;;4.78;;
69970;SDS011;57301;50.328;8.542;2022-07-11T04:23:33;7.25;;;5.10;;
69970;SDS011;57301;50.328;8.542;2022-07-11T04:26:00;6.50;;;4.57;;
69970;SDS011;57301;50.328;8.542;2022-07-11T04:28:27;8.70;;;5.00;;
69970;SDS011;57301;50.328;8.542;2022-07-11T04:30:53;8.88;;;4.63;;
69970;SDS011;57301;50.328;8.542;2022-07-11T04:33:20;7.75;;;4.60;;
69970;SDS011;57301;50.328;8.542;2022-07-11T04:35:46;8.50;;;5.00;;
69970;SDS011;57301;50.328;8.542;2022-07-11T04:38:13;7.53;;;4.50;;
69970;SDS011;57301;50.328;8.542;2022-07-11T04:40:39;8.03;;;5.07;;
69970;SDS011;57301;50.328;8.542;2022-07-11T04:43:06;9.10;;;4.32;;
69970;SDS011;57301;50.328;8.542;2022-07-11T04:45:32;6.40;;;4.28;;
69970;SDS011;57301;50.328;8.542;2022-07-11T04:47:59;7.85;;;4.80;;
69970;SDS011;57301;50.328;8.542;2022-07-11T04:50:28;6.15;;;4.60;;
69970;SDS011;57301;50.328;8.542;2022-07-11T04:52:55;7.97;;;4.83;;
69970;SDS011;57301;50.328;8.542;2022-07-11T04:55:22;6.78;;;4.90;;
69970;SDS011;57301;50.328;8.542;2022-07-11T04:57:48;8.38;;;4.65;;
69970;SDS011;57301;50.328;8.542;2022-07-11T05:00:15;7.43;;;4.85;;
69970;SDS011;57301;50.328;8.542;2022-07-11T05:02:42;9.10;;;5.20;;
69970;SDS011;57301;50.328;8.542;2022-07-11T05:05:09;9.87;;;5.83;;
69970;SDS011;57301;50.328;8.542;2022-07-11T05:07:36;11.43;;;4.85;;
69970;SDS011;57301;50.328;8.542;2022-07-11T05:10:03;10.20;;;5.13;;
69970;SDS011;57301;50.328;8.542;2022-07-11T05:12:30;7.75;;;5.28;;
69970;SDS011;57301;50.328;8.542;2022-07-11T05:14:57;7.75;;;5.30;;
69970;SDS011;57301;50.328;8.542;2022-07-11T05:17:25;9.00;;;5.70;;
69970;SDS011;57301;50.328;8.542;2022-07-11T05:19:53;9.02;;;5.40;;
69970;SDS011;57301;50.328;8.542;2022-07-11T05:22:19;8.15;;;5.20;;
69970;SDS011;57301;50.328;8.542;2022-07-11T05:24:47;8.70;;;5.10;;
69970;SDS011;57301;50.328;8.542;2022-07-11T05:27:14;8.50;;;5.13;;
69970;SDS011;57301;50.328;8.542;2022-07-11T05:29:40;8.37;;;4.80;;
69970;SDS011;57301;50.328;8.542;2022-07-11T05:32:07;9.23;;;5.72;;
69970;SDS011;57301;50.328;8.542;2022-07-11T05:34:33;10.88;;;5.80;;
69970;SDS011;57301;50.328;8.542;2022-07-11T05:37:00;8.80;;;5.57;;
69970;SDS011;57301;50.328;8.542;2022-07-11T05:39:27;8.93;;;5.35;;
69970;SDS011;57301;50.328;8.542;2022-07-11T05:41:53;8.53;;;5.40;;
69970;SDS011;57301;50.328;8.542;2022-07-11T05:44:20;7.05;;;5.15;;
69970;SDS011;57301;50.328;8.542;2022-07-11T05:46:47;6.53;;;4.55;;
69970;SDS011;57301;50.328;8.542;2022-07-11T05:49:13;7.18;;;4.70;;
69970;SDS011;57301;50.328;8.542;2022-07-11T05:51:40;7.07;;;4.40;;
69970;SDS011;57301;50.328;8.542;2022-07-11T05:54:07;7.83;;;4.40;;
69970;SDS011;57301;50.328;8.542;2022-07-11T05:56:34;7.90;;;4.13;;
69970;SDS011;57301;50.328;8.542;2022-07-11T05:59:00;6.88;;;4.00;;
69970;SDS011;57301;50.328;8.542;2022-07-11T06:01:27;7.95;;;4.10;;
69970;SDS011;57301;50.328;8.542;2022-07-11T06:04:01;9.07;;;4.30;;
69970;SDS011;57301;50.328;8.542;2022-07-11T06:06:29;6.57;;;4.23;;
69970;SDS011;57301;50.328;8.542;2022-07-11T06:08:56;6.40;;;3.75;;
69970;SDS011;57301;50.328;8.542;2022-07-11T06:11:22;7.90;;;4.22;;
69970;SDS011;57301;50.328;8.542;2022-07-11T06:13:49;5.65;;;3.78;;
69970;SDS011;57301;50.328;8.542;2022-07-11T06:16:19;7.00;;;3.72;;
69970;SDS011;57301;50.328;8.542;2022-07-11T06:18:46;6.10;;;3.60;;
69970;SDS011;57301;50.328;8.542;2022-07-11T06:21:13;6.68;;;3.10;;
69970;SDS011;57301;50.328;8.542;2022-07-11T06:23:40;4.65;;;2.63;;
69970;SDS011;57301;50.328;8.542;2022-07-11T06:26:09;7.47;;;2.70;;
69970;SDS011;57301;50.328;8.542;2022-07-11T06:28:37;4.03;;;2.67;;
69970;SDS011;57301;50.328;8.542;2022-07-11T06:31:05;3.93;;;2.80;;
69970;SDS011;57301;50.328;8.542;2022-07-11T06:33:32;5.20;;;2.90;;
69970;SDS011;57301;50.328;8.542;2022-07-11T06:35:58;3.70;;;2.83;;
69970;SDS011;57301;50.328;8.542;2022-07-11T06:38:25;3.92;;;2.42;;
69970;SDS011;57301;50.328;8.542;2022-07-11T06:40:51;4.22;;;2.40;;
69970;SDS011;57301;50.328;8.542;2022-07-11T06:43:17;4.03;;;2.50;;
69970;SDS011;57301;50.328;8.542;2022-07-11T06:45:44;3.25;;;2.60;;
69970;SDS011;57301;50.328;8.542;2022-07-11T06:48:11;4.45;;;2.60;;
69970;SDS011;57301;50.328;8.542;2022-07-11T06:50:37;4.18;;;2.60;;
69970;SDS011;57301;50.328;8.542;2022-07-11T06:53:04;4.13;;;2.80;;
69970;SDS011;57301;50.328;8.542;2022-07-11T06:55:31;4.20;;;2.70;;
69970;SDS011;57301;50.328;8.542;2022-07-11T06:57:58;4.72;;;2.60;;
69970;SDS011;57301;50.328;8.542;2022-07-11T07:00:46;3.70;;;2.58;;
69970;SDS011;57301;50.328;8.542;2022-07-11T07:03:12;4.40;;;2.47;;
69970;SDS011;57301;50.328;8.542;2022-07-11T07:05:45;3.92;;;2.30;;
69970;SDS011;57301;50.328;8.542;2022-07-11T07:08:12;5.03;;;2.83;;
69970;SDS011;57301;50.328;8.542;2022-07-11T07:10:39;3.72;;;2.70;;
69970;SDS011;57301;50.328;8.542;2022-07-11T07:13:05;4.07;;;2.47;;
69970;SDS011;57301;50.328;8.542;2022-07-11T07:15:32;5.25;;;2.50;;
69970;SDS011;57301;50.328;8.542;2022-07-11T07:17:59;3.58;;;2.40;;
69970;SDS011;57301;50.328;8.542;2022-07-11T07:20:28;3.40;;;2.67;;
69970;SDS011;57301;50.328;8.542;2022-07-11T07:22:55;5.30;;;4.07;;
69970;SDS011;57301;50.328;8.542;2022-07-11T07:25:22;3.97;;;2.92;;
69970;SDS011;57301;50.328;8.542;2022-07-11T07:27:49;5.28;;;2.90;;
69970;SDS011;57301;50.328;8.542;2022-07-11T07:30:15;4.10;;;2.97;;
69970;SDS011;57301;50.328;8.542;2022-07-11T07:32:42;4.43;;;3.10;;
69970;SDS011;57301;50.328;8.542;2022-07-11T07:35:08;7.28;;;3.08;;
69970;SDS011;57301;50.328;8.542;2022-07-11T07:37:35;3.83;;;3.13;;
69970;SDS011;57301;50.328;8.542;2022-07-11T07:40:02;5.18;;;3.30;;
69970;SDS011;57301;50.328;8.542;2022-07-11T07:42:28;5.72;;;3.33;;
69970;SDS011;57301;50.328;8.542;2022-07-11T07:44:55;4.80;;;3.63;;
69970;SDS011;57301;50.328;8.542;2022-07-11T07:47:22;5.53;;;3.67;;
69970;SDS011;57301;50.328;8.542;2022-07-11T07:49:48;6.75;;;3.72;;
69970;SDS011;57301;50.328;8.542;2022-07-11T07:52:15;5.32;;;3.42;;
69970;SDS011;57301;50.328;8.542;2022-07-11T07:54:41;5.75;;;4.13;;
69970;SDS011;57301;50.328;8.542;2022-07-11T07:57:08;5.37;;;3.77;;
69970;SDS011;57301;50.328;8.542;2022-07-11T07:59:35;5.90;;;4.13;;
69970;SDS011;57301;50.328;8.542;2022-07-11T08:02:01;5.78;;;3.80;;
69970;SDS011;57301;50.328;8.542;2022-07-11T08:04:28;6.78;;;4.00;;
69970;SDS011;57301;50.328;8.542;2022-07-11T08:06:56;9.18;;;4.03;;
69970;SDS011;57301;50.328;8.542;2022-07-11T08:09:25;5.50;;;3.53;;
69970;SDS011;57301;50.328;8.542;2022-07-11T08:11:52;6.57;;;3.63;;
69970;SDS011;57301;50.328;8.542;2022-07-11T08:14:19;5.28;;;3.85;;
69970;SDS011;57301;50.328;8.542;2022-07-11T08:16:46;6.85;;;3.60;;
69970;SDS011;57301;50.328;8.542;2022-07-11T08:19:14;6.18;;;3.63;;
69970;SDS011;57301;50.328;8.542;2022-07-11T08:21:41;5.90;;;3.50;;
69970;SDS011;57301;50.328;8.542;2022-07-11T08:24:08;4.95;;;3.60;;
69970;SDS011;57301;50.328;8.542;2022-07-11T08:26:35;4.40;;;3.20;;
69970;SDS011;57301;50.328;8.542;2022-07-11T08:29:03;6.28;;;3.47;;
69970;SDS011;57301;50.328;8.542;2022-07-11T08:31:30;5.70;;;3.53;;
69970;SDS011;57301;50.328;8.542;2022-07-11T08:33:58;5.63;;;3.70;;
69970;SDS011;57301;50.328;8.542;2022-07-11T08:36:26;5.50;;;3.60;;
69970;SDS011;57301;50.328;8.542;2022-07-11T08:38:55;6.07;;;3.40;;
69970;SDS011;57301;50.328;8.542;2022-07-11T08:41:21;4.53;;;3.25;;
69970;SDS011;57301;50.328;8.542;2022-07-11T08:43:48;5.47;;;3.50;;
69970;SDS011;57301;50.328;8.542;2022-07-11T08:46:15;5.30;;;3.53;;
69970;SDS011;57301;50.328;8.542;2022-07-11T08:48:43;5.90;;;3.30;;
69970;SDS011;57301;50.328;8.542;2022-07-11T08:51:12;3.97;;;2.83;;
69970;SDS011;57301;50.328;8.542;2022-07-11T08:53:40;5.07;;;3.17;;
69970;SDS011;57301;50.328;8.542;2022-07-11T08:56:10;6.05;;;2.92;;
69970;SDS011;57301;50.328;8.542;2022-07-11T08:58:43;4.77;;;2.97;;
69970;SDS011;57301;50.328;8.542;2022-07-11T09:01:20;4.25;;;2.80;;
69970;SDS011;57301;50.328;8.542;2022-07-11T09:03:53;4.53;;;3.13;;
69970;SDS011;57301;50.328;8.542;2022-07-11T09:06:21;3.42;;;2.63;;
69970;SDS011;57301;50.328;8.542;2022-07-11T09:08:48;4.25;;;2.97;;
69970;SDS011;57301;50.328;8.542;2022-07-11T09:11:14;5.20;;;2.80;;
69970;SDS011;57301;50.328;8.542;2022-07-11T09:13:41;4.45;;;3.03;;
69970;SDS011;57301;50.328;8.542;2022-07-11T09:16:08;4.53;;;3.08;;
69970;SDS011;57301;50.328;8.542;2022-07-11T09:18:36;4.40;;;3.33;;
69970;SDS011;57301;50.328;8.542;2022-07-11T09:23:54;6.57;;;3.17;;
69970;SDS011;57301;50.328;8.542;2022-07-11T09:26:42;5.38;;;3.22;;
69970;SDS011;57301;50.328;8.542;2022-07-11T09:29:20;4.80;;;3.03;;
69970;SDS011;57301;50.328;8.542;2022-07-11T09:31:52;4.15;;;2.90;;
69970;SDS011;57301;50.328;8.542;2022-07-11T09:34:19;4.05;;;2.60;;
69970;SDS011;57301;50.328;8.542;2022-07-11T09:36:51;4.60;;;2.73;;
69970;SDS011;57301;50.328;8.542;2022-07-11T09:39:22;3.92;;;2.80;;
69970;SDS011;57301;50.328;8.542;2022-07-11T09:41:53;4.15;;;2.60;;
69970;SDS011;57301;50.328;8.542;2022-07-11T09:44:27;4.40;;;2.47;;
69970;SDS011;57301;50.328;8.542;2022-07-11T09:46:59;6.05;;;2.88;;
69970;SDS011;57301;50.328;8.542;2022-07-11T09:49:33;4.33;;;2.40;;
69970;SDS011;57301;50.328;8.542;2022-07-11T09:52:11;5.22;;;2.58;;
69970;SDS011;57301;50.328;8.542;2022-07-11T09:59:55;13.93;;;10.05;;
69970;SDS011;57301;50.328;8.542;2022-07-11T10:02:22;8.17;;;5.90;;
69970;SDS011;57301;50.328;8.542;2022-07-11T10:04:49;3.60;;;2.22;;
69970;SDS011;57301;50.328;8.542;2022-07-11T10:07:16;2.83;;;1.92;;
69970;SDS011;57301;50.328;8.542;2022-07-11T10:09:42;3.58;;;1.92;;
69970;SDS011;57301;50.328;8.542;2022-07-11T10:12:09;3.17;;;1.80;;
69970;SDS011;57301;50.328;8.542;2022-07-11T10:14:36;3.33;;;1.90;;
69970;SDS011;57301;50.328;8.542;2022-07-11T10:17:13;3.33;;;1.92;;
69970;SDS011;57301;50.328;8.542;2022-07-11T10:22:29;4.00;;;2.10;;
69970;SDS011;57301;50.328;8.542;2022-07-11T10:27:35;3.13;;;1.90;;
69970;SDS011;57301;50.328;8.542;2022-07-11T10:30:07;3.30;;;2.00;;
69970;SDS011;57301;50.328;8.542;2022-07-11T10:32:56;3.17;;;1.90;;
69970;SDS011;57301;50.328;8.542;2022-07-11T10:35:31;4.78;;;2.00;;
69970;SDS011;57301;50.328;8.542;2022-07-11T10:37:57;3.20;;;1.98;;
69970;SDS011;57301;50.328;8.542;2022-07-11T10:43:09;2.85;;;1.90;;
69970;SDS011;57301;50.328;8.542;2022-07-11T10:48:27;2.60;;;1.85;;
69970;SDS011;57301;50.328;8.542;2022-07-11T10:53:48;4.67;;;2.07;;
69970;SDS011;57301;50.328;8.542;2022-07-11T10:59:21;3.33;;;1.90;;
69970;SDS011;57301;50.328;8.542;2022-07-11T11:07:32;4.10;;;2.33;;
69970;SDS011;57301;50.328;8.542;2022-07-11T11:10:07;4.07;;;2.53;;
69970;SDS011;57301;50.328;8.542;2022-07-11T11:15:31;4.93;;;3.25;;
69970;SDS011;57301;50.328;8.542;2022-07-11T11:18:07;3.67;;;2.90;;
69970;SDS011;57301;50.328;8.542;2022-07-11T11:23:33;3.22;;;2.00;;
69970;SDS011;57301;50.328;8.542;2022-07-11T11:26:07;2.95;;;2.38;;
69970;SDS011;57301;50.328;8.542;2022-07-11T11:28:35;4.80;;;2.40;;
69970;SDS011;57301;50.328;8.542;2022-07-11T11:31:04;4.18;;;2.30;;
69970;SDS011;57301;50.328;8.542;2022-07-11T11:33:33;3.30;;;2.20;;
69970;SDS011;57301;50.328;8.542;2022-07-11T11:36:05;5.32;;;2.47;;
69970;SDS011;57301;50.328;8.542;2022-07-11T11:38:38;4.78;;;2.30;;
69970;SDS011;57301;50.328;8.542;2022-07-11T11:41:06;3.58;;;2.50;;
69970;SDS011;57301;50.328;8.542;2022-07-11T11:43:34;3.35;;;2.40;;
69970;SDS011;57301;50.328;8.542;2022-07-11T11:46:01;3.87;;;2.50;;
69970;SDS011;57301;50.328;8.542;2022-07-11T11:48:38;7.00;;;4.85;;
69970;SDS011;57301;50.328;8.542;2022-07-11T11:51:12;4.57;;;2.72;;
69970;SDS011;57301;50.328;8.542;2022-07-11T11:53:43;3.88;;;2.50;;
69970;SDS011;57301;50.328;8.542;2022-07-11T11:58:40;4.30;;;2.80;;
69970;SDS011;57301;50.328;8.542;2022-07-11T12:01:07;4.97;;;2.80;;
69970;SDS011;57301;50.328;8.542;2022-07-11T12:03:50;4.18;;;2.80;;
69970;SDS011;57301;50.328;8.542;2022-07-11T12:06:25;3.90;;;2.80;;
69970;SDS011;57301;50.328;8.542;2022-07-11T12:08:54;4.40;;;3.17;;
69970;SDS011;57301;50.328;8.542;2022-07-11T12:11:25;3.67;;;3.00;;
69970;SDS011;57301;50.328;8.542;2022-07-11T12:13:58;5.10;;;3.30;;
69970;SDS011;57301;50.328;8.542;2022-07-11T12:16:26;4.93;;;2.92;;
69970;SDS011;57301;50.328;8.542;2022-07-11T12:19:21;8.13;;;3.28;;
69970;SDS011;57301;50.328;8.542;2022-07-11T12:21:49;4.20;;;3.03;;
69970;SDS011;57301;50.328;8.542;2022-07-11T12:24:21;6.17;;;2.93;;
69970;SDS011;57301;50.328;8.542;2022-07-11T12:26:49;4.25;;;2.70;;
69970;SDS011;57301;50.328;8.542;2022-07-11T12:29:17;4.55;;;2.70;;
69970;SDS011;57301;50.328;8.542;2022-07-11T12:31:51;4.50;;;2.78;;
69970;SDS011;57301;50.328;8.542;2022-07-11T12:34:18;3.50;;;2.50;;
69970;SDS011;57301;50.328;8.542;2022-07-11T12:36:47;4.03;;;2.73;;
69970;SDS011;57301;50.328;8.542;2022-07-11T12:39:21;5.80;;;3.10;;
69970;SDS011;57301;50.328;8.542;2022-07-11T12:41:50;3.90;;;2.80;;
69970;SDS011;57301;50.328;8.542;2022-07-11T12:44:25;3.58;;;2.22;;
69970;SDS011;57301;50.328;8.542;2022-07-11T12:47:12;3.22;;;2.13;;
69970;SDS011;57301;50.328;8.542;2022-07-11T12:49:40;2.97;;;1.80;;
69970;SDS011;57301;50.328;8.542;2022-07-11T12:52:11;3.50;;;2.03;;
69970;SDS011;57301;50.328;8.542;2022-07-11T12:54:39;4.15;;;2.00;;
69970;SDS011;57301;50.328;8.542;2022-07-11T12:57:06;4.53;;;2.10;;
69970;SDS011;57301;50.328;8.542;2022-07-11T12:59:34;3.10;;;1.90;;
69970;SDS011;57301;50.328;8.542;2022-07-11T13:02:05;2.90;;;2.00;;
69970;SDS011;57301;50.328;8.542;2022-07-11T13:04:46;4.28;;;2.10;;
69970;SDS011;57301;50.328;8.542;2022-07-11T13:07:18;3.50;;;2.28;;
69970;SDS011;57301;50.328;8.542;2022-07-11T13:10:21;3.67;;;2.08;;
69970;SDS011;57301;50.328;8.542;2022-07-11T13:12:49;3.22;;;2.20;;
69970;SDS011;57301;50.328;8.542;2022-07-11T13:15:18;3.43;;;2.40;;
69970;SDS011;57301;50.328;8.542;2022-07-11T13:17:51;2.83;;;2.00;;
69970;SDS011;57301;50.328;8.542;2022-07-11T13:20:20;4.60;;;2.33;;
69970;SDS011;57301;50.328;8.542;2022-07-11T13:22:49;4.28;;;2.40;;
69970;SDS011;57301;50.328;8.542;2022-07-11T13:25:18;3.08;;;2.35;;
69970;SDS011;57301;50.328;8.542;2022-07-11T13:27:46;3.33;;;2.23;;
69970;SDS011;57301;50.328;8.542;2022-07-11T13:30:16;4.72;;;2.40;;
69970;SDS011;57301;50.328;8.542;2022-07-11T13:32:47;4.63;;;2.63;;
69970;SDS011;57301;50.328;8.542;2022-07-11T13:35:15;4.20;;;2.75;;
69970;SDS011;57301;50.328;8.542;2022-07-11T13:37:43;4.18;;;2.50;;
69970;SDS011;57301;50.328;8.542;2022-07-11T13:40:14;4.00;;;2.80;;
69970;SDS011;57301;50.328;8.542;2022-07-11T13:42:43;3.20;;;2.60;;
69970;SDS011;57301;50.328;8.542;2022-07-11T13:45:16;5.57;;;2.70;;
69970;SDS011;57301;50.328;8.542;2022-07-11T13:47:44;4.55;;;2.95;;
69970;SDS011;57301;50.328;8.542;2022-07-11T13:50:12;5.05;;;2.85;;
69970;SDS011;57301;50.328;8.542;2022-07-11T13:52:38;3.47;;;2.67;;
69970;SDS011;57301;50.328;8.542;2022-07-11T13:55:05;3.47;;;2.42;;
69970;SDS011;57301;50.328;8.542;2022-07-11T13:57:35;4.03;;;2.85;;
69970;SDS011;57301;50.328;8.542;2022-07-11T14:00:02;4.28;;;2.70;;
69970;SDS011;57301;50.328;8.542;2022-07-11T14:02:30;3.70;;;3.10;;
69970;SDS011;57301;50.328;8.542;2022-07-11T14:04:57;4.10;;;2.57;;
69970;SDS011;57301;50.328;8.542;2022-07-11T14:07:24;3.83;;;2.60;;
69970;SDS011;57301;50.328;8.542;2022-07-11T14:09:51;4.40;;;2.80;;
69970;SDS011;57301;50.328;8.542;2022-07-11T14:12:17;4.57;;;2.30;;
69970;SDS011;57301;50.328;8.542;2022-07-11T14:14:45;3.83;;;2.33;;
69970;SDS011;57301;50.328;8.542;2022-07-11T14:17:11;3.90;;;2.20;;
69970;SDS011;57301;50.328;8.542;2022-07-11T14:19:38;5.22;;;2.30;;
69970;SDS011;57301;50.328;8.542;2022-07-11T14:22:05;11.13;;;4.03;;
69970;SDS011;57301;50.328;8.542;2022-07-11T14:24:33;10.52;;;7.10;;
69970;SDS011;57301;50.328;8.542;2022-07-11T14:27:00;3.78;;;2.17;;
69970;SDS011;57301;50.328;8.542;2022-07-11T14:29:27;2.80;;;1.87;;
69970;SDS011;57301;50.328;8.542;2022-07-11T14:31:54;5.28;;;2.00;;
69970;SDS011;57301;50.328;8.542;2022-07-11T14:34:21;3.60;;;1.90;;
69970;SDS011;57301;50.328;8.542;2022-07-11T14:36:47;3.00;;;1.80;;
69970;SDS011;57301;50.328;8.542;2022-07-11T14:39:14;4.05;;;1.88;;
69970;SDS011;57301;50.328;8.542;2022-07-11T14:41:42;3.00;;;2.10;;
69970;SDS011;57301;50.328;8.542;2022-07-11T14:44:10;3.22;;;1.83;;
69970;SDS011;57301;50.328;8.542;2022-07-11T14:46:37;3.35;;;2.00;;
69970;SDS011;57301;50.328;8.542;2022-07-11T14:49:12;2.70;;;1.80;;
69970;SDS011;57301;50.328;8.542;2022-07-11T14:51:39;3.67;;;1.90;;
69970;SDS011;57301;50.328;8.542;2022-07-11T14:54:22;2.83;;;2.00;;
69970;SDS011;57301;50.328;8.542;2022-07-11T14:56:48;2.95;;;2.00;;
69970;SDS011;57301;50.328;8.542;2022-07-11T14:59:15;5.18;;;1.70;;
69970;SDS011;57301;50.328;8.542;2022-07-11T15:01:42;4.75;;;2.10;;
69970;SDS011;57301;50.328;8.542;2022-07-11T15:04:08;3.20;;;2.10;;
69970;SDS011;57301;50.328;8.542;2022-07-11T15:06:36;3.10;;;2.27;;
69970;SDS011;57301;50.328;8.542;2022-07-11T15:09:21;3.63;;;2.10;;
69970;SDS011;57301;50.328;8.542;2022-07-11T15:12:06;3.15;;;1.80;;
69970;SDS011;57301;50.328;8.542;2022-07-11T15:14:50;3.20;;;1.55;;
69970;SDS011;57301;50.328;8.542;2022-07-11T15:17:21;2.50;;;1.60;;
69970;SDS011;57301;50.328;8.542;2022-07-11T15:19:49;4.50;;;1.90;;
69970;SDS011;57301;50.328;8.542;2022-07-11T15:22:16;2.72;;;1.73;;
69970;SDS011;57301;50.328;8.542;2022-07-11T15:24:45;2.60;;;1.70;;
69970;SDS011;57301;50.328;8.542;2022-07-11T15:27:11;2.97;;;1.70;;
69970;SDS011;57301;50.328;8.542;2022-07-11T15:29:38;3.63;;;1.70;;
69970;SDS011;57301;50.328;8.542;2022-07-11T15:32:04;2.90;;;1.80;;
69970;SDS011;57301;50.328;8.542;2022-07-11T15:34:31;2.95;;;1.90;;
69970;SDS011;57301;50.328;8.542;2022-07-11T15:36:58;3.40;;;1.75;;